San Luis, CO (81152)

8:39 PM MST on February 12, 2016 (GMT -0700)
Rio Grand Gorge | | Change Station
CLOSE
Current Station
Personal Weather Station
Location: Jaroso, CO
Elevation: 7513 ft
Nearby Weather Stations

Elev 7513 ft 37.00 °N, 105.71 °W | Updated 8 seconds ago

Clear
Clear
29.8 °F
Feels Like 30 °F
N
0.0
Wind Variable Wind from WSW
Gusts 0.0 mph

Today
High -- | Low -- °F
--% Chance of Precip.
Yesterday
High -- | Low -- °F
Precip. -- in
Pressure 30.42 in
Visibility 10.0 miles
Clouds Clear
Windchill 30 °F
Dew Point 28 °F
Humidity 91%
Rainfall 0.00 in
Snow Depth Not available.
6:55 AM 5:38 PM
Waxing Crescent, 26% visible
METAR KALS 130252Z AUTO 36004KT 10SM CLR 02/M06 A3037 RMK AO2 SLP301 T00221056 51004 $
Pressure 30.42 in
Visibility 10.0 miles
Clouds Clear
Windchill 30 °F
Dew Point 28 °F
Humidity 91%
Rainfall 0.00 in
Snow Depth Not available.
6:55 AM 5:38 PM
Waxing Crescent, 26% visible
METAR KALS 130252Z AUTO 36004KT 10SM CLR 02/M06 A3037 RMK AO2 SLP301 T00221056 51004 $

10-Day Weather Forecast

Almanac

Astronomy

Feb. 12, 2016 Rise Set
Actual Time
Civil Twilight
Nautical Twilight
Astronomical Twilight
Moon
Length of Visible Light
Length of Day
Tomorrow will be .
, % of the Moon is Illuminated

Today's Extremes

State Highs State Lows

Community

WunderPhotos

Upload Photos

1,892,492 photos uploaded!

WunderBlog® & News

Nearby

Air Quality

  Air Quality AQ Index Pollutant
Not available.

Snow Depth

Station Depth Elevation

Earthquake Activity

City Distance Mag. Time & Date
Minimum magnitude displayed is 2.5.

Coastal Water Temperatures

Place Temperature

Stations

Nearby Weather Stations

Station Location Temp. Windchill Dew Point Humidity Wind Precip. Elev Updated Type
                   

Watches & Warnings

There are currently no watches in effect.